Terminal Aerodrome Forecast
Issued by NWS

Home | Current Version | Previous Version | Text Only | Print | Product List | Glossary On
Versions: 1 2 3 4 5 6 7 8 9 10 11 12 13 14 15 16 17 18 19 20 21 22 23 24 25 26 27 28 29 30 31 32 33 34
000
FTAK31 PANC 231520 AAB
TAFACD
TAF AMD
PACD 231520Z 2315/2412 12015G25KT P6SM BKN025
      TEMPO 2315/2318 11007KT SCT025 BKN040
     FM231800 06015KT 4SM -RA OVC010
     FM240000 24012KT P6SM -SHRA BKN018=

USA.gov is the U.S. government's official web portal to all federal, state and local government web resources and services.